Guapimirim, Brazil
Current Conditions -  °F | °C
As of 6:00 AM on Saturday 20 Dec 2014 (Local Time) from SBGL Reporting Station
Broken Clouds Broken Clouds  
Wind Chill: 77°   Ceiling: 8000
Heat Index: 79°   Visibility: 6mi
Dew Point: 70°   Wind: 2mph
Humidity: 78%   Direction: 190°S
Pressure: 29.77"   Gusts: NA
Location:  22.54°S, 42.98°W
Report Text: SBGL 200800Z 19002KT 9999 FEW015 BKN080 25/21 Q1008
Loading
Personal Weather Stations






























Interactive Weather Map New forecast layout! Learn more

10-Day Weather Forecast

Advertisements
Track Severe Weather on mobile